Time;durP1;ratioP1;P1;durP2;ratioP2;P2;SDS_P1;SDS_P2;PMS_P1;PMS_P2;Temp;Humidity;BMP_temperature;BMP_pressure;BME280_temperature;BME280_humidity;BME280_pressure;Samples;Min_cycle;Max_cycle;Signal;HPM_P1;HPM_P2
2021/07/02 00:01:59;;;;;;;8.55;4.05;;;;;;;17.08;79.20;98697.83;4130874;85;21154;-80
2021/07/02 00:08:01;;;;;;;13.18;4.87;;;;;;;17.13;79.17;98691.80;4132813;85;21074;-80
2021/07/02 00:14:04;;;;;;;6.22;3.80;;;;;;;17.17;79.33;98685.59;4132606;85;21083;-80
2021/07/02 00:20:07;;;;;;;7.55;3.25;;;;;;;17.18;79.25;98684.38;4129341;85;21586;-80
2021/07/02 00:26:08;;;;;;;6.45;3.87;;;;;;;17.24;79.11;98690.99;4129643;85;21086;-80
2021/07/02 00:32:11;;;;;;;7.72;3.47;;;;;;;17.27;79.01;98697.05;4130999;85;21015;-80
2021/07/02 00:38:12;;;;;;;5.83;3.95;;;;;;;17.33;79.02;98703.64;4129267;85;21008;-80
2021/07/02 00:44:14;;;;;;;11.10;3.30;;;;;;;17.35;78.97;98690.17;4149723;83;21003;-81
2021/07/02 00:50:15;;;;;;;7.17;3.77;;;;;;;17.42;79.20;98702.45;4154015;84;21526;-81
2021/07/02 00:56:19;;;;;;;12.88;4.12;;;;;;;17.45;78.98;98687.80;4156812;84;21093;-80
2021/07/02 01:02:23;;;;;;;7.33;3.73;;;;;;;17.44;78.93;98691.78;4155782;84;21102;-81
2021/07/02 01:08:24;;;;;;;7.42;3.87;;;;;;;17.46;79.05;98677.52;4157806;84;21082;-80
2021/07/02 01:14:27;;;;;;;7.97;3.83;;;;;;;17.50;78.98;98691.45;4151455;83;21038;-80
2021/07/02 01:20:29;;;;;;;7.80;4.92;;;;;;;17.50;79.16;98694.22;4226729;83;21022;-80
2021/07/02 01:26:32;;;;;;;11.50;5.00;;;;;;;17.39;79.02;98698.37;4221466;83;21137;-81
2021/07/02 01:32:34;;;;;;;11.43;5.87;;;;;;;17.35;78.97;98686.02;4227535;83;21093;-80
2021/07/02 01:38:37;;;;;;;11.93;5.37;;;;;;;17.41;79.04;98682.92;4219843;82;21035;-80
2021/07/02 01:44:39;;;;;;;8.95;4.37;;;;;;;17.45;79.21;98682.86;4197558;83;21086;-80
2021/07/02 01:50:41;;;;;;;8.03;3.80;;;;;;;17.36;79.06;98687.57;4172696;82;21074;-80
2021/07/02 01:56:48;;;;;;;5.92;3.40;;;;;;;17.33;79.33;98683.48;4174405;82;21035;-80
2021/07/02 02:02:51;;;;;;;5.70;3.62;;;;;;;17.26;79.60;98680.26;4170868;84;21091;-80
2021/07/02 02:08:53;;;;;;;4.28;3.30;;;;;;;17.25;79.73;98682.86;4171937;84;21594;-80
2021/07/02 02:14:57;;;;;;;8.65;4.40;;;;;;;17.16;79.83;98685.42;4186441;84;21097;-79
2021/07/02 02:21:00;;;;;;;7.15;4.20;;;;;;;17.15;79.86;98689.37;4179395;82;21538;-80
2021/07/02 02:27:03;;;;;;;10.45;4.55;;;;;;;17.14;79.89;98685.06;4155800;84;21098;-81
2021/07/02 02:33:06;;;;;;;6.83;3.75;;;;;;;17.12;79.90;98691.61;4180930;84;20991;-80
2021/07/02 02:39:09;;;;;;;9.63;3.58;;;;;;;17.14;80.09;98690.59;4179413;84;21660;-80
2021/07/02 02:45:11;;;;;;;4.53;3.02;;;;;;;17.18;80.21;98681.61;4197830;83;21116;-80
2021/07/02 02:51:13;;;;;;;7.78;3.10;;;;;;;17.13;80.18;98684.89;4271459;81;21095;-80
2021/07/02 02:57:14;;;;;;;5.37;3.27;;;;;;;17.17;80.20;98689.73;4289261;81;21067;-79
2021/07/02 03:03:20;;;;;;;10.55;3.37;;;;;;;17.26;80.31;98694.71;4291005;81;21060;-80
2021/07/02 03:09:22;;;;;;;5.80;3.30;;;;;;;17.30;80.21;98697.58;4287118;81;21043;-79
2021/07/02 03:15:26;;;;;;;7.47;3.80;;;;;;;17.34;80.44;98713.49;4288815;81;21556;-80
2021/07/02 03:21:28;;;;;;;5.92;3.47;;;;;;;17.39;80.42;98714.98;4285065;81;21042;-80
2021/07/02 03:27:32;;;;;;;6.70;3.40;;;;;;;17.42;80.38;98719.66;4253890;81;21073;-80
2021/07/02 03:33:34;;;;;;;5.28;3.58;;;;;;;17.40;80.38;98723.47;4277768;81;21011;-80
2021/07/02 03:39:36;;;;;;;4.90;3.33;;;;;;;17.46;80.39;98735.00;4302069;81;33207;-80
2021/07/02 03:45:37;;;;;;;7.70;3.92;;;;;;;17.46;80.25;98742.55;4240961;82;21168;-79
2021/07/02 03:51:39;;;;;;;10.90;4.87;;;;;;;17.43;80.46;98733.06;4215236;83;21018;-78
2021/07/02 03:57:40;;;;;;;5.60;3.60;;;;;;;17.44;80.37;98735.23;4173420;84;21072;-80
2021/07/02 04:03:42;;;;;;;6.53;3.90;;;;;;;17.45;80.39;98736.81;4156979;84;21070;-79
2021/07/02 04:09:43;;;;;;;5.10;3.83;;;;;;;17.39;80.48;98736.52;4153580;84;21090;-80
2021/07/02 04:15:44;;;;;;;8.40;3.50;;;;;;;17.41;80.50;98736.09;4233223;83;21069;-79
2021/07/02 04:21:47;;;;;;;7.10;3.90;;;;;;;17.45;80.62;98738.98;4233889;83;21650;-80
2021/07/02 04:27:49;;;;;;;11.00;5.03;;;;;;;17.45;80.62;98728.52;4233985;83;21101;-80
2021/07/02 04:33:50;;;;;;;6.80;4.50;;;;;;;17.44;80.63;98730.52;4175192;84;21032;-81
2021/07/02 04:39:51;;;;;;;7.42;4.33;;;;;;;17.42;80.75;98725.98;4082950;85;21072;-79
2021/07/02 04:45:53;;;;;;;6.22;3.98;;;;;;;17.42;80.80;98722.42;4125268;84;21182;-83
2021/07/02 04:51:54;;;;;;;6.65;3.70;;;;;;;17.44;80.86;98726.94;4317138;80;21166;-80
2021/07/02 04:57:56;;;;;;;10.40;4.17;;;;;;;17.46;80.92;98725.94;4317229;80;21111;-80
2021/07/02 05:03:57;;;;;;;7.80;5.10;;;;;;;17.42;81.18;98742.58;4319158;80;21027;-79
2021/07/02 05:10:00;;;;;;;5.67;4.87;;;;;;;17.41;81.35;98747.16;4319291;81;21043;-78
2021/07/02 05:16:03;;;;;;;8.03;5.58;;;;;;;17.35;81.42;98758.55;4318128;80;21088;-78
2021/07/02 05:22:17;;;;;;;10.20;6.95;;;;;;;17.17;81.91;98755.52;4316365;80;21057;-78
2021/07/02 05:28:17;;;;;;;9.13;7.15;;;;;;;17.16;82.42;98765.63;4322920;80;21512;-78
2021/07/02 05:34:24;;;;;;;14.98;7.40;;;;;;;17.14;82.76;98763.88;4317085;80;21104;-79
2021/07/02 05:40:25;;;;;;;;;;;;;;;17.12;82.95;98778.14;4316132;80;21028;-78
2021/07/02 05:46:27;;;;;;;9.85;8.28;;;;;;;17.00;83.58;98782.13;4290061;80;20109;-78
2021/07/02 05:52:28;;;;;;;10.60;8.18;;;;;;;16.91;83.49;98785.42;4272329;82;21043;-77
2021/07/02 05:58:30;;;;;;;11.28;7.25;;;;;;;16.85;83.87;98787.11;4272611;82;21018;-78
2021/07/02 06:04:31;;;;;;;9.23;7.33;;;;;;;16.77;84.51;98787.67;4275580;82;21567;-77
2021/07/02 06:10:32;;;;;;;11.90;7.92;;;;;;;16.86;84.70;98786.52;4274286;82;22876;-78
2021/07/02 06:16:34;;;;;;;12.28;8.30;;;;;;;16.81;84.99;98793.91;4275498;82;21357;-77
2021/07/02 06:22:36;;;;;;;12.60;8.03;;;;;;;16.69;85.83;98805.56;4275060;82;21058;-77
2021/07/02 06:28:38;;;;;;;10.15;8.83;;;;;;;16.68;85.47;98797.08;4277443;82;21147;-78
2021/07/02 06:34:39;;;;;;;12.95;8.70;;;;;;;16.72;85.71;98797.81;4272329;82;21025;-79
2021/07/02 06:40:41;;;;;;;13.68;8.45;;;;;;;16.74;85.60;98796.80;4277304;82;21074;-77
2021/07/02 06:46:43;;;;;;;13.98;8.30;;;;;;;16.68;85.67;98804.77;4306041;81;21091;-78
2021/07/02 06:52:44;;;;;;;14.20;8.90;;;;;;;16.63;85.98;98807.25;4320874;80;21051;-78
2021/07/02 06:58:49;;;;;;;10.90;8.00;;;;;;;16.64;86.21;98812.95;4321828;81;21037;-76
2021/07/02 07:04:49;;;;;;;14.10;8.55;;;;;;;16.70;86.56;98814.82;4320975;80;21071;-76
2021/07/02 07:10:50;;;;;;;11.75;8.35;;;;;;;16.82;86.62;98807.30;4322795;80;21037;-77
2021/07/02 07:16:51;;;;;;;18.42;8.83;;;;;;;16.84;86.62;98811.03;4321753;81;21035;-77
2021/07/02 07:22:52;;;;;;;15.00;8.90;;;;;;;16.82;87.32;98799.60;4320103;81;21074;-78
2021/07/02 07:28:54;;;;;;;13.08;9.60;;;;;;;16.87;87.26;98803.27;4322934;81;21118;-77
2021/07/02 07:34:59;;;;;;;10.35;8.85;;;;;;;17.03;87.33;98798.66;4319231;80;21060;-77
2021/07/02 07:40:59;;;;;;;13.50;9.75;;;;;;;17.23;87.31;98802.06;4320732;81;21055;-78
2021/07/02 07:47:00;;;;;;;14.03;8.60;;;;;;;17.33;87.15;98796.33;4283806;81;21023;-78
2021/07/02 07:53:04;;;;;;;18.10;9.83;;;;;;;17.43;87.21;98794.56;4268964;82;21018;-78
2021/07/02 07:59:06;;;;;;;12.85;7.50;;;;;;;17.57;87.41;98793.69;4171593;84;21054;-78
2021/07/02 08:05:08;;;;;;;17.82;7.22;;;;;;;17.73;87.03;98792.38;4174288;84;20996;-78
2021/07/02 08:11:09;;;;;;;14.43;7.37;;;;;;;17.87;86.91;98796.23;4173938;84;21030;-82
2021/07/02 08:17:10;;;;;;;9.23;6.97;;;;;;;17.94;87.04;98805.00;4178426;84;21082;-78
2021/07/02 08:23:13;;;;;;;10.28;5.85;;;;;;;18.13;87.20;98804.19;4175165;84;21615;-77
2021/07/02 08:29:25;;;;;;;7.83;5.47;;;;;;;18.19;86.13;98812.95;4173412;84;21093;-78
2021/07/02 08:35:27;;;;;;;7.35;5.10;;;;;;;18.42;85.61;98803.73;4103415;85;21071;-80
2021/07/02 08:41:28;;;;;;;7.22;5.75;;;;;;;18.63;84.81;98794.33;4104151;85;21079;-78
2021/07/02 08:47:29;;;;;;;6.92;5.45;;;;;;;18.82;84.97;98804.36;4111965;85;21016;-78
2021/07/02 08:53:32;;;;;;;9.90;5.55;;;;;;;18.99;84.69;98808.69;4196575;83;21539;-81
2021/07/02 08:59:33;;;;;;;8.48;6.40;;;;;;;19.22;84.70;98807.87;4126675;84;21062;-79
2021/07/02 09:05:37;;;;;;;6.92;5.65;;;;;;;19.36;84.70;98806.73;4095064;85;21046;-79
2021/07/02 09:11:39;;;;;;;8.63;4.92;;;;;;;19.38;84.10;98805.09;4181524;84;21141;-79
2021/07/02 09:18:00;;;;;;;9.05;5.58;;;;;;;19.51;83.53;98809.30;4165139;84;21087;-79
2021/07/02 09:24:01;;;;;;;9.65;5.85;;;;;;;19.59;82.75;98815.59;4185149;84;21022;-79
2021/07/02 09:30:18;;;;;;;6.08;4.75;;;;;;;19.59;81.69;98808.66;4163501;84;22253;-79
2021/07/02 09:36:29;;;;;;;10.47;5.00;;;;;;;19.72;81.65;98805.91;4175760;84;21074;-78
2021/07/02 09:42:30;;;;;;;8.30;5.30;;;;;;;19.91;81.17;98801.59;4191528;83;21105;-80
2021/07/02 09:48:35;;;;;;;7.80;6.30;;;;;;;20.23;81.27;98785.98;4232507;82;21167;-80
2021/07/02 09:54:36;;;;;;;12.33;6.85;;;;;;;20.56;80.71;98785.33;4316753;80;21085;-83
2021/07/02 10:00:55;;;;;;;9.50;6.03;;;;;;;20.85;79.88;98776.80;4322546;80;21138;-80
2021/07/02 10:07:13;;;;;;;8.33;5.30;;;;;;;21.01;79.50;98784.44;4316405;81;21134;-80
2021/07/02 10:13:15;;;;;;;4.78;4.30;;;;;;;21.27;78.75;98781.72;4319733;81;21055;-80
2021/07/02 10:19:19;;;;;;;9.88;4.83;;;;;;;21.50;78.21;98788.24;4322841;81;21091;-80
2021/07/02 10:25:20;;;;;;;7.53;6.60;;;;;;;21.51;77.61;98792.60;4307911;80;21550;-80
2021/07/02 10:31:25;;;;;;;8.30;5.60;;;;;;;21.34;76.95;98788.44;4312654;80;21097;-80
2021/07/02 10:37:28;;;;;;;5.65;5.03;;;;;;;21.19;76.57;98790.16;4317201;80;21091;-81
2021/07/02 10:43:30;;;;;;;8.15;5.28;;;;;;;21.25;76.75;98787.59;4316270;80;21193;-80
2021/07/02 10:49:39;;;;;;;5.40;4.90;;;;;;;21.29;76.34;98788.23;4319425;81;21627;-82
2021/07/02 10:55:43;;;;;;;5.95;5.35;;;;;;;21.46;75.72;98783.43;4319457;80;21555;-82
2021/07/02 11:02:12;;;;;;;5.35;4.85;;;;;;;21.49;75.12;98789.48;4320258;80;21091;-80
2021/07/02 11:08:31;;;;;;;6.45;5.53;;;;;;;21.62;75.63;98793.00;4311067;80;21047;-81
2021/07/02 11:14:33;;;;;;;7.17;6.45;;;;;;;21.55;74.38;98786.27;4288724;80;21054;-80
2021/07/02 11:20:34;;;;;;;5.42;4.12;;;;;;;21.62;73.71;98783.25;4217660;82;21042;-80
2021/07/02 11:26:44;;;;;;;6.08;4.72;;;;;;;21.65;74.10;98784.34;4242466;82;21012;-80
2021/07/02 11:32:49;;;;;;;6.90;4.22;;;;;;;21.70;73.76;98776.80;4160832;84;21637;-81
2021/07/02 11:38:54;;;;;;;4.35;3.95;;;;;;;21.85;73.49;98775.05;4317530;80;21066;-82
2021/07/02 11:44:55;;;;;;;5.85;4.00;;;;;;;22.06;73.11;98771.47;4319250;81;22354;-81
2021/07/02 11:51:09;;;;;;;5.35;4.10;;;;;;;22.18;73.22;98756.64;4319309;80;21646;-82
2021/07/02 11:57:20;;;;;;;7.05;5.15;;;;;;;22.50;72.37;98763.14;4318725;80;21042;-81
2021/07/02 12:03:21;;;;;;;4.22;3.75;;;;;;;22.49;71.72;98752.44;4318113;80;21109;-81
2021/07/02 12:09:28;;;;;;;5.33;4.62;;;;;;;22.89;71.15;98745.59;4316898;80;21032;-82
2021/07/02 12:15:32;;;;;;;6.08;4.92;;;;;;;22.99;70.08;98740.80;4316608;81;21025;-81
2021/07/02 12:21:36;;;;;;;6.72;4.45;;;;;;;22.93;69.49;98728.05;4317184;80;21904;-81
2021/07/02 12:27:37;;;;;;;4.08;3.67;;;;;;;22.76;69.12;98728.80;4313499;81;21047;-81
2021/07/02 12:33:44;;;;;;;5.50;3.60;;;;;;;22.49;68.54;98730.88;4319662;81;21607;-81
2021/07/02 12:39:51;;;;;;;7.50;3.77;;;;;;;22.35;68.11;98716.12;4233373;82;21057;-81
2021/07/02 12:45:53;;;;;;;5.40;3.75;;;;;;;22.28;67.69;98715.03;4314992;81;21033;-81
2021/07/02 12:58:11;;;;;;;7.37;3.62;;;;;;;22.13;67.81;98713.27;4320604;80;21114;-84
2021/07/02 13:04:12;;;;;;;5.37;3.52;;;;;;;22.16;67.33;98715.14;4317942;80;21123;-83
2021/07/02 13:10:27;;;;;;;5.37;3.55;;;;;;;22.15;67.42;98717.14;4315651;81;21111;-81
2021/07/02 13:16:48;;;;;;;3.95;2.90;;;;;;;22.08;67.38;98717.41;4236296;82;21042;-82
2021/07/02 13:23:01;;;;;;;3.45;2.60;;;;;;;21.97;67.28;98727.44;4319801;81;21054;-82
2021/07/02 13:29:07;;;;;;;4.28;2.58;;;;;;;21.88;67.19;98717.65;4318247;80;21694;-81
2021/07/02 13:35:22;;;;;;;6.13;3.13;;;;;;;21.79;66.89;98711.40;4316062;80;21105;-82
2021/07/02 13:41:23;;;;;;;5.03;2.98;;;;;;;21.60;66.69;98699.95;4323119;80;21019;-81
2021/07/02 13:47:32;;;;;;;4.45;2.90;;;;;;;21.62;66.83;98706.64;4313978;80;21090;-82
2021/07/02 13:53:33;;;;;;;3.45;3.15;;;;;;;21.67;67.34;98701.09;4315190;81;21121;-82
2021/07/02 13:59:35;;;;;;;3.60;3.22;;;;;;;21.89;67.26;98697.69;4319188;80;21067;-81
2021/07/02 14:05:38;;;;;;;3.95;3.20;;;;;;;22.12;67.44;98704.13;4313727;81;21055;-82
2021/07/02 14:11:39;;;;;;;6.45;3.50;;;;;;;22.13;66.95;98701.48;4316472;80;21055;-81
2021/07/02 14:17:41;;;;;;;5.85;3.10;;;;;;;22.16;66.94;98693.59;4318354;80;21427;-82
2021/07/02 14:23:43;;;;;;;4.95;3.42;;;;;;;22.31;66.75;98698.77;4319862;80;21524;-81
2021/07/02 14:29:44;;;;;;;6.80;3.00;;;;;;;22.45;66.91;98709.95;4322270;80;21010;-82
2021/07/02 14:35:45;;;;;;;3.52;2.77;;;;;;;22.53;66.27;98712.03;4319623;81;21042;-81
2021/07/02 14:41:47;;;;;;;3.98;2.80;;;;;;;22.53;65.52;98721.02;4323637;80;21051;-81
2021/07/02 14:47:50;;;;;;;3.95;3.50;;;;;;;22.34;65.59;98716.58;4162331;84;21147;-81
2021/07/02 14:53:51;;;;;;;3.58;2.95;;;;;;;22.18;65.48;98720.41;4154833;84;22124;-80
2021/07/02 14:59:53;;;;;;;7.15;3.20;;;;;;;22.13;65.40;98723.03;4153754;84;21482;-83
2021/07/02 15:05:54;;;;;;;3.80;2.87;;;;;;;22.07;65.46;98713.08;4237149;83;21631;-81
2021/07/02 15:11:55;;;;;;;5.40;2.58;;;;;;;22.02;65.31;98701.77;4154342;84;21561;-80
2021/07/02 15:17:57;;;;;;;3.85;2.87;;;;;;;22.00;65.50;98705.02;4120934;84;21085;-82
2021/07/02 15:23:59;;;;;;;4.62;2.95;;;;;;;22.01;65.64;98704.38;4131717;84;21358;-82
2021/07/02 15:30:39;;;;;;;4.25;2.87;;;;;;;22.15;65.47;98703.81;4221317;82;21508;-81
2021/07/02 15:36:41;;;;;;;8.18;2.72;;;;;;;22.14;65.16;98710.63;4227591;83;21070;-80
2021/07/02 15:42:42;;;;;;;5.50;3.80;;;;;;;21.89;65.36;98710.22;4234625;83;21617;-81
2021/07/02 15:48:45;;;;;;;6.33;4.22;;;;;;;21.60;65.85;98715.28;4153110;84;21075;-81
2021/07/02 15:54:46;;;;;;;4.35;3.95;;;;;;;21.37;66.23;98717.93;4241221;82;21047;-81
2021/07/02 16:00:49;;;;;;;5.37;3.22;;;;;;;21.33;66.76;98722.83;4251882;82;21111;-81
2021/07/02 16:06:51;;;;;;;5.12;3.02;;;;;;;21.37;66.60;98724.89;4161466;84;21129;-80
2021/07/02 16:12:52;;;;;;;3.50;2.95;;;;;;;21.54;66.91;98724.85;4319617;80;22088;-79
2021/07/02 16:18:54;;;;;;;5.08;2.60;;;;;;;21.71;67.02;98723.41;4313455;81;21039;-81
2021/07/02 16:24:55;;;;;;;5.60;2.58;;;;;;;21.86;66.72;98727.08;4317615;80;21038;-81
2021/07/02 16:30:56;;;;;;;6.35;2.80;;;;;;;21.79;66.35;98732.90;4319950;81;21062;-81
2021/07/02 16:36:58;;;;;;;6.53;3.30;;;;;;;21.67;66.32;98728.95;4313611;81;21149;-81
2021/07/02 16:42:59;;;;;;;5.75;3.27;;;;;;;21.49;66.36;98734.39;4314763;81;21027;-82
2021/07/02 16:49:00;;;;;;;9.43;4.58;;;;;;;21.30;66.33;98729.31;4317501;81;21044;-81
2021/07/02 16:55:03;;;;;;;7.37;4.62;;;;;;;21.07;66.33;98735.92;4319925;80;21055;-80
2021/07/02 17:01:05;;;;;;;7.40;4.12;;;;;;;20.84;66.78;98731.53;4319785;80;21346;-81
2021/07/02 17:07:06;;;;;;;7.22;4.25;;;;;;;20.65;66.88;98745.09;4319300;80;21069;-81
2021/07/02 17:13:07;;;;;;;8.93;5.25;;;;;;;20.50;67.17;98737.66;4316897;80;21047;-79
2021/07/02 17:19:11;;;;;;;10.30;5.30;;;;;;;20.33;67.70;98732.83;4323322;80;21028;-81
2021/07/02 17:25:15;;;;;;;9.25;5.50;;;;;;;20.22;67.92;98726.83;4323722;80;21070;-81
2021/07/02 17:31:18;;;;;;;10.53;5.42;;;;;;;20.13;68.12;98730.30;4289020;80;21995;-80
2021/07/02 17:37:19;;;;;;;8.63;5.25;;;;;;;20.03;68.49;98734.74;4199293;81;9999778;-82
2021/07/02 17:43:20;;;;;;;7.20;5.05;;;;;;;19.93;68.80;98731.09;4317458;80;21087;-81
2021/07/02 17:49:22;;;;;;;8.55;5.30;;;;;;;19.89;69.09;98733.19;4277671;81;21077;-81
2021/07/02 17:55:24;;;;;;;11.50;5.72;;;;;;;19.79;69.38;98733.52;4237331;82;21923;-78
2021/07/02 18:01:25;;;;;;;15.23;8.05;;;;;;;19.64;70.13;98736.52;4091885;85;21060;-79
2021/07/02 18:07:27;;;;;;;13.72;8.48;;;;;;;19.30;71.42;98732.16;4131197;85;21757;-79
2021/07/02 18:13:29;;;;;;;11.53;9.43;;;;;;;19.11;72.95;98728.89;4160775;84;21062;-78
2021/07/02 18:19:30;;;;;;;13.88;9.23;;;;;;;18.92;73.84;98727.06;4149574;84;21020;-78
2021/07/02 18:25:33;;;;;;;14.60;10.23;;;;;;;18.74;74.53;98727.52;4152160;84;21960;-79
2021/07/02 18:31:35;;;;;;;17.67;11.00;;;;;;;18.61;75.66;98726.66;4149461;84;21013;-78
2021/07/02 18:37:38;;;;;;;12.15;10.88;;;;;;;18.54;76.06;98724.83;4039547;84;10000139;-79
2021/07/02 18:43:39;;;;;;;13.55;12.07;;;;;;;18.51;77.05;98731.25;4163213;84;21176;-78
2021/07/02 18:49:40;;;;;;;16.80;11.35;;;;;;;18.57;77.79;98724.59;4286225;81;21018;-77
2021/07/02 18:55:42;;;;;;;13.22;11.48;;;;;;;18.52;78.06;98736.20;4318022;81;21031;-78
2021/07/02 19:01:43;;;;;;;18.02;12.18;;;;;;;18.44;78.24;98734.81;4311138;81;21620;-79
2021/07/02 19:07:45;;;;;;;14.95;12.53;;;;;;;18.28;79.07;98735.55;4315249;81;20997;-78
2021/07/02 19:13:47;;;;;;;18.52;13.25;;;;;;;18.27;79.34;98744.30;4248694;82;21558;-79
2021/07/02 19:19:48;;;;;;;16.48;12.07;;;;;;;18.20;79.81;98749.98;4335555;79;20976;-77
2021/07/02 19:25:50;;;;;;;16.82;11.83;;;;;;;17.98;80.19;98750.33;4239842;82;21051;-79
2021/07/02 19:31:51;;;;;;;13.83;10.03;;;;;;;17.91;81.07;98749.09;4171614;84;21943;-78
2021/07/02 19:37:53;;;;;;;10.40;9.30;;;;;;;17.93;81.32;98761.28;4314949;81;21032;-78
2021/07/02 19:43:54;;;;;;;8.95;6.83;;;;;;;17.89;81.40;98771.67;4314485;81;21481;-78
2021/07/02 19:49:56;;;;;;;9.15;6.10;;;;;;;17.76;81.09;98776.30;4294284;81;21036;-77
2021/07/02 19:55:57;;;;;;;6.95;5.80;;;;;;;17.47;81.13;98775.92;4272687;82;21930;-78
2021/07/02 20:02:02;;;;;;;8.55;6.50;;;;;;;17.32;81.48;98785.06;4276381;82;21086;-78
2021/07/02 20:08:04;;;;;;;11.18;6.40;;;;;;;17.37;82.30;98776.90;4276838;81;21066;-77
2021/07/02 20:14:06;;;;;;;7.67;6.20;;;;;;;17.37;82.19;98771.36;4275860;82;21088;-77
2021/07/02 20:20:10;;;;;;;8.10;6.55;;;;;;;17.29;82.45;98775.47;4275004;82;21072;-77
2021/07/02 20:26:12;;;;;;;9.70;6.95;;;;;;;17.23;82.99;98781.48;4275362;82;21023;-77
2021/07/02 20:32:14;;;;;;;10.05;7.45;;;;;;;17.29;83.33;98786.53;4275739;82;21050;-77
2021/07/02 20:38:15;;;;;;;10.15;7.05;;;;;;;17.34;83.30;98788.81;4277881;82;21586;-77
2021/07/02 20:44:17;;;;;;;11.18;7.12;;;;;;;17.27;83.43;98784.78;4276838;82;21513;-77
2021/07/02 20:50:19;;;;;;;14.45;6.78;;;;;;;17.24;83.86;98780.89;4278527;81;21017;-77
2021/07/02 20:56:20;;;;;;;10.13;5.97;;;;;;;17.24;84.14;98781.66;4272927;82;21054;-78
2021/07/02 21:02:21;;;;;;;12.10;6.50;;;;;;;17.30;84.32;98784.73;4280070;82;21066;-77
2021/07/02 21:08:23;;;;;;;9.88;6.12;;;;;;;17.24;84.41;98789.95;4280151;82;21085;-78
2021/07/02 21:14:24;;;;;;;9.18;7.33;;;;;;;17.23;84.58;98787.61;4276910;82;20962;-76
2021/07/02 21:20:25;;;;;;;14.15;7.37;;;;;;;17.22;84.99;98779.14;4276692;82;22321;-77
2021/07/02 21:26:27;;;;;;;10.03;7.62;;;;;;;17.18;85.20;98779.20;4277344;82;20997;-77
2021/07/02 21:32:28;;;;;;;13.18;7.22;;;;;;;17.16;85.40;98776.07;4279221;82;21114;-77
2021/07/02 21:38:30;;;;;;;17.02;5.97;;;;;;;17.20;85.64;98782.93;4273887;82;21034;-77
2021/07/02 21:44:31;;;;;;;12.93;7.58;;;;;;;17.15;85.59;98784.80;4276196;82;21088;-77
2021/07/02 21:50:33;;;;;;;10.60;8.00;;;;;;;17.10;85.98;98783.92;4299075;81;21101;-77
2021/07/02 21:56:34;;;;;;;12.68;8.70;;;;;;;17.06;86.15;98790.11;4328455;80;21495;-77
2021/07/02 22:02:36;;;;;;;14.50;8.35;;;;;;;17.07;86.24;98794.42;4319795;81;21055;-77
2021/07/02 22:08:39;;;;;;;17.10;8.95;;;;;;;17.03;86.57;98797.86;4321552;81;21118;-77
2021/07/02 22:14:40;;;;;;;11.30;7.70;;;;;;;17.02;86.54;98789.40;4320976;80;21572;-77
2021/07/02 22:20:45;;;;;;;11.30;7.25;;;;;;;16.97;86.51;98785.73;4322924;80;21094;-77
2021/07/02 22:26:46;;;;;;;17.02;7.33;;;;;;;16.95;86.79;98799.19;4317775;80;21548;-77
2021/07/02 22:32:49;;;;;;;11.97;6.97;;;;;;;16.93;86.93;98798.23;4323175;81;21025;-77
2021/07/02 22:38:51;;;;;;;11.43;6.85;;;;;;;16.85;86.96;98796.78;4324403;80;21069;-77
2021/07/02 22:44:52;;;;;;;14.65;6.83;;;;;;;16.82;87.32;98805.13;4320192;81;21073;-76
2021/07/02 22:50:53;;;;;;;11.85;6.15;;;;;;;16.85;87.36;98811.23;4290327;81;21034;-77
2021/07/02 22:57:02;;;;;;;12.00;6.00;;;;;;;16.82;87.35;98812.84;4248976;83;21014;-77
2021/07/02 23:03:03;;;;;;;9.50;5.53;;;;;;;16.82;87.36;98813.42;4187184;84;21086;-77
2021/07/02 23:09:04;;;;;;;10.70;6.08;;;;;;;16.80;87.66;98822.14;4174117;84;21086;-77
2021/07/02 23:15:08;;;;;;;9.30;5.78;;;;;;;16.78;87.58;98812.13;4249729;83;21107;-77
2021/07/02 23:21:09;;;;;;;8.18;5.80;;;;;;;16.76;87.65;98809.58;4114447;85;21127;-77
2021/07/02 23:27:10;;;;;;;9.60;6.20;;;;;;;16.75;87.75;98805.27;4260276;83;21054;-77
2021/07/02 23:33:12;;;;;;;11.05;5.67;;;;;;;16.70;87.90;98818.97;4180676;84;21018;-77
2021/07/02 23:39:13;;;;;;;10.23;5.33;;;;;;;16.67;87.99;98819.02;4179045;84;21073;-77
2021/07/02 23:45:14;;;;;;;8.38;5.37;;;;;;;16.64;88.25;98824.80;4171102;83;21143;-77
2021/07/02 23:51:15;;;;;;;8.55;5.42;;;;;;;16.65;88.36;98815.88;4259552;82;21051;-77
2021/07/02 23:57:17;;;;;;;7.00;4.10;;;;;;;16.68;88.48;98810.89;4105150;85;21523;-77
